Time;durP1;ratioP1;P1;durP2;ratioP2;P2;SDS_P1;SDS_P2;PMS_P1;PMS_P2;Temp;Humidity;BMP_temperature;BMP_pressure;BME280_temperature;BME280_humidity;BME280_pressure;Samples;Min_cycle;Max_cycle;Signal;HPM_P1;HPM_P2
2022/01/22 07:01:03;;;;;;;10.15;5.20;;;;;;;;;;5473566;24;20105;-80
2022/01/22 07:03:30;;;;;;;20.20;5.15;;;;;;;;;;4832976;29;20050;-80
2022/01/22 07:05:57;;;;;;;10.38;4.95;;;;;;;;;;4833740;29;20042;-81
2022/01/22 07:08:24;;;;;;;14.23;5.03;;;;;;;;;;4833350;29;20157;-80
2022/01/22 07:10:50;;;;;;;12.02;4.18;;;;;;;;;;4833392;29;20102;-81
2022/01/22 07:13:17;;;;;;;11.48;4.32;;;;;;;;;;4833872;29;20082;-80
2022/01/22 07:15:43;;;;;;;13.00;4.63;;;;;;;;;;4832756;29;20046;-81
2022/01/22 07:18:13;;;;;;;13.48;4.32;;;;;;;;;;4832654;29;20076;-81
2022/01/22 07:20:43;;;;;;;13.30;4.35;;;;;;;;;;4833485;29;20106;-80
2022/01/22 07:23:30;;;;;;;16.92;4.82;;;;;;;;;;4831494;29;20045;-80
2022/01/22 07:26:05;;;;;;;10.65;4.75;;;;;;;;;;4833005;29;20062;-80
2022/01/22 07:28:32;;;;;;;13.52;5.43;;;;;;;;;;4834366;29;20065;-79
2022/01/22 07:31:03;;;;;;;9.70;4.90;;;;;;;;;;4832880;29;20106;-80
2022/01/22 07:33:30;;;;;;;11.43;4.80;;;;;;;;;;4831676;29;20082;-80
2022/01/22 07:35:57;;;;;;;14.57;4.88;;;;;;;;;;4831934;29;20135;-80
2022/01/22 07:38:23;;;;;;;11.57;4.57;;;;;;;;;;4831780;29;20054;-80
2022/01/22 07:40:50;;;;;;;12.27;4.68;;;;;;;;;;4832189;29;20587;-80
2022/01/22 07:43:17;;;;;;;10.82;4.57;;;;;;;;;;4832543;29;20093;-80
2022/01/22 07:45:44;;;;;;;8.38;4.38;;;;;;;;;;4835854;29;20372;-80
2022/01/22 07:48:11;;;;;;;14.40;4.68;;;;;;;;;;4832002;29;20098;-78
2022/01/22 07:50:38;;;;;;;20.08;5.75;;;;;;;;;;4838310;29;20077;-78
2022/01/22 07:53:05;;;;;;;6.78;4.70;;;;;;;;;;4832577;29;20081;-79
2022/01/22 07:55:32;;;;;;;13.90;4.97;;;;;;;;;;4835859;29;20586;-80
2022/01/22 07:57:58;;;;;;;14.10;5.00;;;;;;;;;;4833874;29;20118;-79
2022/01/22 08:00:25;;;;;;;11.10;4.93;;;;;;;;;;4835944;29;20396;-80
2022/01/22 08:02:51;;;;;;;13.10;5.20;;;;;;;;;;4853440;29;20062;-79
2022/01/22 08:05:18;;;;;;;13.95;5.22;;;;;;;;;;4853023;29;20450;-79
2022/01/22 08:07:45;;;;;;;14.48;5.65;;;;;;;;;;4852549;29;20098;-79
2022/01/22 08:10:12;;;;;;;11.38;4.60;;;;;;;;;;4857309;29;20069;-78
2022/01/22 08:12:42;;;;;;;10.13;5.10;;;;;;;;;;4855052;29;20526;-79
2022/01/22 08:15:11;;;;;;;12.27;4.63;;;;;;;;;;4854448;29;20137;-79
2022/01/22 08:17:38;;;;;;;9.55;4.63;;;;;;;;;;4854993;29;20065;-79
2022/01/22 08:20:05;;;;;;;18.65;4.50;;;;;;;;;;4855289;29;20519;-78
2022/01/22 08:22:32;;;;;;;14.73;4.90;;;;;;;;;;4857411;29;20053;-79
2022/01/22 08:25:00;;;;;;;10.70;5.00;;;;;;;;;;4854915;29;20106;-78
2022/01/22 08:29:58;;;;;;;12.68;5.38;;;;;;;;;;4854662;29;20077;-78
2022/01/22 08:37:39;;;;;;;11.75;5.07;;;;;;;;;;4853800;29;20045;-79
2022/01/22 08:40:08;;;;;;;10.85;4.90;;;;;;;;;;4859764;29;20516;-77
2022/01/22 08:42:36;;;;;;;12.45;5.07;;;;;;;;;;4842827;29;20083;-79
2022/01/22 08:45:04;;;;;;;15.10;5.22;;;;;;;;;;4858269;29;20045;-78
2022/01/22 08:47:31;;;;;;;15.48;5.57;;;;;;;;;;4857486;29;20110;-79
2022/01/22 08:49:57;;;;;;;11.48;5.15;;;;;;;;;;4857227;29;20412;-78
2022/01/22 08:52:29;;;;;;;15.93;5.72;;;;;;;;;;4842309;29;20121;-78
2022/01/22 08:54:55;;;;;;;11.27;5.35;;;;;;;;;;4857428;29;20073;-78
2022/01/22 08:57:25;;;;;;;11.82;5.00;;;;;;;;;;4859353;29;20107;-78
2022/01/22 08:59:51;;;;;;;12.98;5.38;;;;;;;;;;4858252;29;20092;-79
2022/01/22 09:02:18;;;;;;;13.10;5.20;;;;;;;;;;4854675;29;20115;-78
2022/01/22 09:04:45;;;;;;;13.00;5.68;;;;;;;;;;4860062;29;20053;-78
2022/01/22 09:07:12;;;;;;;16.92;7.50;;;;;;;;;;4859988;29;20109;-78
2022/01/22 09:09:39;;;;;;;18.77;7.18;;;;;;;;;;4858256;29;20053;-79
2022/01/22 09:12:09;;;;;;;21.25;7.40;;;;;;;;;;4857796;29;20081;-78
2022/01/22 09:14:36;;;;;;;14.18;5.82;;;;;;;;;;4857231;29;20053;-78
2022/01/22 09:17:03;;;;;;;13.25;6.13;;;;;;;;;;4856072;29;20037;-78
2022/01/22 09:19:34;;;;;;;12.43;4.80;;;;;;;;;;4860302;29;20088;-79
2022/01/22 09:22:03;;;;;;;13.77;5.18;;;;;;;;;;4849955;29;20090;-78
2022/01/22 09:24:30;;;;;;;;;;;;;;;;;;4855310;29;20153;-78
2022/01/22 09:27:01;;;;;;;18.02;4.70;;;;;;;;;;4851633;29;20424;-79
2022/01/22 09:29:28;;;;;;;15.43;4.97;;;;;;;;;;4851079;29;20117;-79
2022/01/22 09:31:55;;;;;;;41.92;16.10;;;;;;;;;;4851912;29;20575;-79
2022/01/22 09:34:22;;;;;;;18.55;7.55;;;;;;;;;;4851946;29;20172;-78
2022/01/22 09:36:48;;;;;;;13.60;5.22;;;;;;;;;;4851825;29;20088;-78
2022/01/22 09:39:15;;;;;;;12.25;5.45;;;;;;;;;;4851542;29;20133;-78
2022/01/22 09:41:42;;;;;;;16.40;5.53;;;;;;;;;;4851491;29;20392;-79
2022/01/22 09:44:28;;;;;;;13.93;6.45;;;;;;;;;;4850999;29;20081;-79
2022/01/22 09:46:56;;;;;;;15.38;5.97;;;;;;;;;;4852071;29;20087;-79
2022/01/22 09:49:23;;;;;;;18.60;6.15;;;;;;;;;;4852043;29;20041;-79
2022/01/22 09:51:49;;;;;;;18.00;6.60;;;;;;;;;;4851159;29;20058;-79
2022/01/22 09:54:16;;;;;;;13.18;7.00;;;;;;;;;;4850914;29;20046;-79
2022/01/22 09:56:45;;;;;;;11.98;5.88;;;;;;;;;;4851481;29;20566;-79
2022/01/22 09:59:13;;;;;;;9.88;5.13;;;;;;;;;;4834636;29;20045;-79
2022/01/22 10:01:40;;;;;;;14.20;5.78;;;;;;;;;;4851857;29;20057;-79
2022/01/22 10:04:08;;;;;;;14.80;5.57;;;;;;;;;;4850029;29;20468;-79
2022/01/22 10:06:53;;;;;;;16.70;6.18;;;;;;;;;;4850835;29;20097;-79
2022/01/22 10:09:33;;;;;;;15.85;6.20;;;;;;;;;;4850703;29;20045;-78
2022/01/22 10:12:12;;;;;;;13.20;6.22;;;;;;;;;;4843905;29;20049;-78
2022/01/22 10:15:06;;;;;;;16.67;5.93;;;;;;;;;;4851017;29;20045;-78
2022/01/22 10:17:47;;;;;;;10.30;5.90;;;;;;;;;;4851185;29;20049;-78
2022/01/22 10:20:28;;;;;;;14.32;6.63;;;;;;;;;;4850562;29;20053;-78
2022/01/22 10:23:00;;;;;;;16.48;6.15;;;;;;;;;;4850804;29;20053;-78
2022/01/22 10:25:36;;;;;;;15.68;6.93;;;;;;;;;;4851414;29;20061;-78
2022/01/22 10:28:05;;;;;;;13.20;6.18;;;;;;;;;;4846609;29;20125;-78
2022/01/22 10:30:36;;;;;;;12.90;7.15;;;;;;;;;;4837171;29;20054;-78
2022/01/22 10:33:27;;;;;;;16.60;9.73;;;;;;;;;;4838405;29;20164;-79
2022/01/22 10:36:07;;;;;;;23.48;10.13;;;;;;;;;;4842956;29;20064;-81
2022/01/22 10:38:52;;;;;;;18.77;9.65;;;;;;;;;;4847322;29;20049;-78
2022/01/22 10:41:39;;;;;;;20.27;11.65;;;;;;;;;;4850206;29;20053;-78
2022/01/22 10:44:09;;;;;;;24.73;11.48;;;;;;;;;;4845684;29;20080;-78
2022/01/22 10:49:21;;;;;;;20.38;8.55;;;;;;;;;;4850616;29;20064;-79
2022/01/22 10:52:03;;;;;;;31.42;8.00;;;;;;;;;;4849282;29;20339;-77
2022/01/22 10:54:32;;;;;;;18.63;7.93;;;;;;;;;;4845909;29;20053;-79
2022/01/22 10:57:15;;;;;;;15.85;7.38;;;;;;;;;;4850240;29;20069;-79
2022/01/22 10:59:50;;;;;;;11.35;7.20;;;;;;;;;;4834100;29;20121;-79
2022/01/22 11:02:29;;;;;;;23.38;7.78;;;;;;;;;;4849094;29;20093;-78
2022/01/22 11:04:56;;;;;;;14.60;7.40;;;;;;;;;;4850997;29;20053;-78
2022/01/22 11:07:23;;;;;;;13.25;7.18;;;;;;;;;;4850392;29;20081;-78
2022/01/22 11:09:58;;;;;;;19.23;8.77;;;;;;;;;;4850212;29;20059;-78
2022/01/22 11:12:25;;;;;;;20.65;9.18;;;;;;;;;;4850174;29;20057;-78
2022/01/22 11:14:51;;;;;;;18.60;10.40;;;;;;;;;;4850812;29;20224;-78
2022/01/22 11:17:19;;;;;;;18.77;10.13;;;;;;;;;;4850264;29;20148;-79
2022/01/22 11:19:49;;;;;;;27.48;11.73;;;;;;;;;;4851454;29;20524;-78
2022/01/22 11:22:16;;;;;;;;;;;;;;;;;;4823172;29;20114;-77
2022/01/22 11:24:47;;;;;;;21.40;9.57;;;;;;;;;;4855750;29;19963;-78
2022/01/22 11:27:17;;;;;;;18.02;8.82;;;;;;;;;;4844158;29;20077;-78
2022/01/22 11:29:53;;;;;;;22.42;8.77;;;;;;;;;;4841950;29;20057;-78
2022/01/22 11:32:26;;;;;;;15.45;8.73;;;;;;;;;;4852170;29;20049;-79
2022/01/22 11:34:57;;;;;;;20.60;10.45;;;;;;;;;;4835257;29;20061;-78
2022/01/22 11:37:29;;;;;;;16.73;9.00;;;;;;;;;;4848889;29;20054;-78
2022/01/22 11:40:10;;;;;;;18.35;7.95;;;;;;;;;;4849615;29;20073;-79
2022/01/22 11:43:03;;;;;;;18.63;9.05;;;;;;;;;;4852994;29;20513;-78
2022/01/22 11:45:36;;;;;;;18.45;8.70;;;;;;;;;;4850489;29;20590;-79
2022/01/22 11:48:15;;;;;;;16.50;9.38;;;;;;;;;;4847326;29;20060;-79
2022/01/22 11:50:45;;;;;;;16.33;8.45;;;;;;;;;;4853534;29;20038;-76
2022/01/22 11:53:34;;;;;;;18.25;9.93;;;;;;;;;;4853379;29;20057;-78
2022/01/22 11:56:12;;;;;;;17.02;8.20;;;;;;;;;;4852815;29;20098;-76
2022/01/22 11:59:02;;;;;;;17.42;8.48;;;;;;;;;;4850004;29;20049;-79
2022/01/22 12:01:41;;;;;;;18.17;8.20;;;;;;;;;;4851873;29;20184;-79
2022/01/22 12:04:10;;;;;;;27.98;14.45;;;;;;;;;;4847671;29;20151;-78
2022/01/22 12:07:02;;;;;;;13.15;7.53;;;;;;;;;;4849741;29;20053;-78
2022/01/22 12:09:31;;;;;;;13.00;7.95;;;;;;;;;;4852547;29;20060;-78
2022/01/22 12:15:14;;;;;;;16.90;8.18;;;;;;;;;;4849343;29;20037;-78
2022/01/22 12:18:00;;;;;;;15.15;6.20;;;;;;;;;;4850530;29;20056;-77
2022/01/22 12:21:30;;;;;;;13.82;6.50;;;;;;;;;;4853115;29;20061;-77
2022/01/22 12:23:19;;;;;;;10.75;5.78;;;;;;;;;;4849384;29;20065;-76
2022/01/22 12:25:49;;;;;;;12.35;6.53;;;;;;;;;;4837385;29;20129;-77
2022/01/22 12:28:43;;;;;;;11.18;5.95;;;;;;;;;;4853292;29;20570;-78
2022/01/22 12:31:15;;;;;;;10.93;6.25;;;;;;;;;;4847746;29;20094;-76
2022/01/22 12:33:48;;;;;;;12.35;5.00;;;;;;;;;;4857400;29;20049;-77
2022/01/22 12:36:18;;;;;;;14.05;6.75;;;;;;;;;;4854503;29;20097;-78
2022/01/22 12:38:58;;;;;;;10.35;5.90;;;;;;;;;;4854977;29;20097;-76
2022/01/22 12:41:33;;;;;;;13.40;7.20;;;;;;;;;;4843089;29;20050;-76
2022/01/22 12:44:10;;;;;;;12.35;6.75;;;;;;;;;;4857649;29;20112;-76
2022/01/22 12:46:56;;;;;;;12.88;5.40;;;;;;;;;;4869177;29;20486;-76
2022/01/22 12:49:24;;;;;;;14.30;7.32;;;;;;;;;;4872375;29;20125;-77
2022/01/22 12:52:03;;;;;;;14.47;5.87;;;;;;;;;;4866488;29;20069;-77
2022/01/22 12:54:36;;;;;;;11.43;5.20;;;;;;;;;;4863597;29;20598;-77
2022/01/22 12:57:15;;;;;;;7.90;4.72;;;;;;;;;;4858609;29;20053;-77
2022/01/22 12:59:53;;;;;;;10.10;4.55;;;;;;;;;;4859876;29;20045;-77
2022/01/22 13:02:47;;;;;;;9.43;4.68;;;;;;;;;;4842755;29;20050;-77
2022/01/22 13:05:17;;;;;;;10.50;4.53;;;;;;;;;;4840534;29;20045;-77
2022/01/22 13:07:52;;;;;;;9.55;4.22;;;;;;;;;;4860862;29;20530;-78
2022/01/22 13:10:22;;;;;;;8.55;3.80;;;;;;;;;;4860344;29;20539;-77
2022/01/22 13:12:49;;;;;;;10.15;3.95;;;;;;;;;;4861805;29;20053;-77
2022/01/22 13:15:17;;;;;;;9.90;3.72;;;;;;;;;;4864072;29;20404;-77
2022/01/22 13:17:51;;;;;;;20.77;12.07;;;;;;;;;;4865486;29;20895;-76
2022/01/22 13:20:24;;;;;;;40.97;26.02;;;;;;;;;;4855654;29;20061;-76
2022/01/22 13:22:51;;;;;;;13.25;8.73;;;;;;;;;;4859368;29;20105;-77
2022/01/22 13:25:19;;;;;;;13.32;5.78;;;;;;;;;;4859990;29;20057;-77
2022/01/22 13:28:01;;;;;;;9.75;3.33;;;;;;;;;;4855431;29;20515;-77
2022/01/22 13:30:33;;;;;;;8.60;3.63;;;;;;;;;;4859973;29;20053;-76
2022/01/22 13:33:14;;;;;;;8.18;3.53;;;;;;;;;;4864472;29;20430;-77
2022/01/22 13:49:44;;;;;;;13.13;7.43;;;;;;;;;;4863453;29;20041;-77
2022/01/22 13:52:13;;;;;;;13.65;6.25;;;;;;;;;;4866068;29;20045;-78
2022/01/22 13:54:46;;;;;;;16.05;8.35;;;;;;;;;;4855701;29;20152;-78
2022/01/22 13:57:15;;;;;;;8.90;4.03;;;;;;;;;;4855296;29;20057;-78
2022/01/22 13:59:46;;;;;;;8.18;4.93;;;;;;;;;;4857644;29;20494;-78
2022/01/22 14:04:55;;;;;;;11.27;3.90;;;;;;;;;;4864057;29;20049;-78
2022/01/22 14:07:33;;;;;;;8.25;3.60;;;;;;;;;;4854953;29;20050;-78
2022/01/22 14:10:08;;;;;;;8.10;3.75;;;;;;;;;;4855504;29;20441;-78
2022/01/22 14:12:42;;;;;;;13.88;6.10;;;;;;;;;;4851000;29;20049;-78
2022/01/22 14:15:16;;;;;;;12.80;4.20;;;;;;;;;;4834604;29;20086;-77
2022/01/22 14:20:44;;;;;;;11.30;6.28;;;;;;;;;;4857740;29;20056;-77
2022/01/22 14:23:41;;;;;;;8.70;3.63;;;;;;;;;;4863190;29;20106;-76
2022/01/22 14:26:16;;;;;;;8.65;3.75;;;;;;;;;;4850042;29;20056;-77
2022/01/22 14:29:08;;;;;;;13.43;3.80;;;;;;;;;;4855952;29;20061;-77
2022/01/22 14:31:51;;;;;;;8.80;3.63;;;;;;;;;;4854605;29;20050;-78
2022/01/22 14:34:35;;;;;;;5.97;3.53;;;;;;;;;;4853506;29;20045;-78
2022/01/22 14:37:05;;;;;;;11.55;4.22;;;;;;;;;;4835093;29;20045;-77
2022/01/22 14:45:31;;;;;;;7.18;3.70;;;;;;;;;;4828950;29;20910;-77
2022/01/22 14:48:01;;;;;;;11.75;4.13;;;;;;;;;;4854447;29;20046;-77
2022/01/22 14:50:31;;;;;;;12.00;4.10;;;;;;;;;;4853766;29;20182;-77
2022/01/22 14:53:00;;;;;;;11.27;3.80;;;;;;;;;;4866641;29;20077;-77
2022/01/22 14:55:28;;;;;;;10.40;4.10;;;;;;;;;;4864959;29;20049;-77
2022/01/22 14:57:57;;;;;;;12.07;3.88;;;;;;;;;;4856898;29;20073;-77
2022/01/22 15:00:25;;;;;;;9.05;3.53;;;;;;;;;;4856989;29;20078;-77
2022/01/22 15:02:51;;;;;;;9.43;3.20;;;;;;;;;;4857429;29;20050;-78
2022/01/22 15:05:18;;;;;;;10.27;4.38;;;;;;;;;;4856666;29;20550;-77
2022/01/22 15:07:46;;;;;;;20.08;9.25;;;;;;;;;;4854601;29;20478;-77
2022/01/22 15:10:17;;;;;;;11.07;4.95;;;;;;;;;;4857922;29;20050;-78
2022/01/22 15:12:44;;;;;;;10.85;4.97;;;;;;;;;;4857905;29;20045;-78
2022/01/22 15:15:42;;;;;;;20.92;10.20;;;;;;;;;;4857801;29;20392;-77
2022/01/22 15:18:25;;;;;;;;;;;;;;;;;;4834405;29;20105;-77
2022/01/22 15:20:51;;;;;;;11.10;5.47;;;;;;;;;;4857955;29;20282;-76
2022/01/22 15:23:18;;;;;;;12.32;4.60;;;;;;;;;;4857409;29;20080;-77
2022/01/22 15:25:45;;;;;;;13.20;5.35;;;;;;;;;;4858150;29;20484;-77
2022/01/22 15:28:11;;;;;;;13.18;5.13;;;;;;;;;;4856379;29;20113;-77
2022/01/22 15:30:39;;;;;;;10.20;4.95;;;;;;;;;;4840106;29;20129;-77
2022/01/22 15:33:22;;;;;;;13.18;5.47;;;;;;;;;;4856908;29;20057;-77
2022/01/22 15:35:49;;;;;;;12.77;6.13;;;;;;;;;;4839298;29;20049;-77
2022/01/22 15:38:15;;;;;;;9.85;4.82;;;;;;;;;;4856149;29;20102;-77
2022/01/22 15:40:44;;;;;;;7.07;4.68;;;;;;;;;;4837742;29;20045;-76
2022/01/22 15:43:11;;;;;;;13.05;4.35;;;;;;;;;;4835844;29;20053;-78
2022/01/22 15:45:38;;;;;;;8.68;4.43;;;;;;;;;;4856431;29;20053;-78
2022/01/22 15:48:05;;;;;;;9.18;4.90;;;;;;;;;;4855637;29;20128;-77
2022/01/22 15:50:34;;;;;;;11.95;5.50;;;;;;;;;;4857919;29;20674;-77
2022/01/22 15:53:15;;;;;;;8.50;4.18;;;;;;;;;;4863408;29;20485;-78
2022/01/22 15:55:44;;;;;;;11.80;5.50;;;;;;;;;;4866512;29;20128;-78
2022/01/22 15:58:11;;;;;;;12.57;5.60;;;;;;;;;;4865199;29;20060;-78
2022/01/22 16:00:40;;;;;;;12.15;6.20;;;;;;;;;;4865696;29;20101;-78
2022/01/22 16:03:08;;;;;;;11.98;5.47;;;;;;;;;;4869098;29;20053;-79
2022/01/22 16:05:36;;;;;;;13.87;5.93;;;;;;;;;;4857385;29;20495;-78
2022/01/22 16:08:03;;;;;;;13.57;5.30;;;;;;;;;;4869171;29;20076;-80
2022/01/22 16:10:50;;;;;;;10.82;5.35;;;;;;;;;;4865613;29;20208;-80
2022/01/22 16:13:18;;;;;;;10.85;6.10;;;;;;;;;;4861604;29;20538;-80
2022/01/22 16:15:45;;;;;;;14.65;5.85;;;;;;;;;;4855641;29;20767;-79
2022/01/22 16:18:12;;;;;;;14.98;5.88;;;;;;;;;;4855676;29;20057;-80
2022/01/22 16:20:39;;;;;;;13.13;5.32;;;;;;;;;;4863126;29;20116;-77
2022/01/22 16:23:05;;;;;;;9.38;4.70;;;;;;;;;;4865605;29;20145;-80
2022/01/22 16:25:32;;;;;;;12.75;6.05;;;;;;;;;;4846358;29;20518;-77
2022/01/22 16:27:59;;;;;;;15.25;7.70;;;;;;;;;;4855955;29;20499;-80
2022/01/22 16:30:26;;;;;;;14.57;6.18;;;;;;;;;;4855120;29;20053;-80
2022/01/22 16:32:52;;;;;;;12.27;5.50;;;;;;;;;;4855881;29;20093;-76
2022/01/22 16:35:19;;;;;;;15.07;8.32;;;;;;;;;;4861912;29;20485;-78
2022/01/22 16:37:46;;;;;;;14.23;6.78;;;;;;;;;;4864183;29;20506;-78
2022/01/22 16:40:19;;;;;;;14.85;6.30;;;;;;;;;;4854333;29;20053;-79
2022/01/22 16:42:58;;;;;;;12.82;5.93;;;;;;;;;;4869197;29;20049;-76
2022/01/22 16:51:19;;;;;;;36.97;16.98;;;;;;;;;;4865735;29;20057;-77
2022/01/22 16:59:51;;;;;;;17.65;7.57;;;;;;;;;;4807516;29;20074;-79
2022/01/22 17:02:24;;;;;;;15.68;6.97;;;;;;;;;;4790208;29;20134;-78
2022/01/22 17:04:54;;;;;;;19.52;8.05;;;;;;;;;;4809676;29;20061;-78
2022/01/22 17:15:05;;;;;;;14.70;6.18;;;;;;;;;;4803857;29;20145;-78
2022/01/22 17:17:32;;;;;;;17.02;7.55;;;;;;;;;;4799142;29;20544;-78
2022/01/22 17:20:00;;;;;;;18.05;6.68;;;;;;;;;;4801565;29;20055;-78
2022/01/22 17:22:26;;;;;;;14.02;7.03;;;;;;;;;;4802803;29;20474;-78
2022/01/22 17:24:53;;;;;;;13.63;7.28;;;;;;;;;;4803201;29;20059;-78
2022/01/22 17:27:21;;;;;;;16.33;7.38;;;;;;;;;;4799547;29;20242;-78
2022/01/22 17:29:51;;;;;;;15.93;8.77;;;;;;;;;;4799560;29;20100;-78
2022/01/22 17:32:20;;;;;;;12.98;7.13;;;;;;;;;;4782260;29;20331;-78
2022/01/22 17:34:46;;;;;;;17.65;8.32;;;;;;;;;;4813846;29;20110;-78
2022/01/22 17:37:13;;;;;;;21.15;7.63;;;;;;;;;;4858108;29;20198;-78
2022/01/22 17:39:40;;;;;;;16.75;7.13;;;;;;;;;;4856938;29;20049;-79
2022/01/22 17:42:10;;;;;;;13.45;7.57;;;;;;;;;;4856375;29;20159;-78
2022/01/22 17:44:46;;;;;;;20.55;6.90;;;;;;;;;;4857350;29;20464;-79
2022/01/22 17:47:13;;;;;;;15.32;6.85;;;;;;;;;;4856579;29;20050;-78
2022/01/22 17:49:40;;;;;;;19.45;7.70;;;;;;;;;;4865598;29;20455;-78
2022/01/22 17:52:07;;;;;;;14.50;7.45;;;;;;;;;;4862680;29;20084;-78
2022/01/22 17:54:34;;;;;;;12.15;7.45;;;;;;;;;;4863333;29;20053;-78
2022/01/22 17:57:02;;;;;;;16.65;6.75;;;;;;;;;;4862462;29;20074;-79
2022/01/22 17:59:30;;;;;;;11.13;7.10;;;;;;;;;;4862996;29;20084;-79
2022/01/22 18:01:57;;;;;;;13.48;6.70;;;;;;;;;;4862079;29;20582;-77
2022/01/22 18:04:24;;;;;;;13.30;6.25;;;;;;;;;;4861178;29;20168;-78
2022/01/22 18:06:50;;;;;;;12.35;6.28;;;;;;;;;;4870299;29;20052;-78
2022/01/22 18:09:17;;;;;;;14.40;5.78;;;;;;;;;;4862034;29;20041;-78
2022/01/22 18:11:45;;;;;;;11.68;4.90;;;;;;;;;;4861442;29;20132;-80
2022/01/22 18:14:12;;;;;;;14.38;5.53;;;;;;;;;;4856175;29;20049;-79
2022/01/22 18:16:39;;;;;;;19.98;5.70;;;;;;;;;;4854723;29;20069;-79
2022/01/22 18:19:07;;;;;;;19.38;6.38;;;;;;;;;;4837698;29;20045;-78
2022/01/22 18:21:36;;;;;;;10.60;5.75;;;;;;;;;;4860796;29;20057;-80
2022/01/22 18:24:05;;;;;;;12.63;7.63;;;;;;;;;;4859520;29;20414;-77
2022/01/22 18:26:33;;;;;;;19.40;6.70;;;;;;;;;;4837504;29;20876;-80
2022/01/22 18:29:03;;;;;;;15.55;7.00;;;;;;;;;;4852077;29;20058;-77
2022/01/22 18:31:29;;;;;;;14.25;5.50;;;;;;;;;;4853515;29;20097;-78
2022/01/22 18:34:00;;;;;;;14.05;5.65;;;;;;;;;;4855471;29;20122;-77
2022/01/22 18:36:27;;;;;;;18.42;7.00;;;;;;;;;;4838020;29;20166;-77
2022/01/22 18:38:54;;;;;;;14.15;6.38;;;;;;;;;;4859444;29;20102;-78
2022/01/22 18:41:21;;;;;;;16.38;5.90;;;;;;;;;;4858662;29;20135;-79
2022/01/22 18:43:50;;;;;;;16.40;6.10;;;;;;;;;;4861324;29;20120;-78
2022/01/22 18:46:17;;;;;;;19.27;6.43;;;;;;;;;;4856987;29;20582;-78
2022/01/22 18:49:05;;;;;;;12.88;6.03;;;;;;;;;;4843694;29;20437;-78
2022/01/22 18:51:33;;;;;;;15.48;6.07;;;;;;;;;;4860836;29;20480;-80
2022/01/22 18:54:00;;;;;;;13.63;6.22;;;;;;;;;;4856243;29;20176;-79
2022/01/22 18:56:26;;;;;;;16.58;6.18;;;;;;;;;;4860353;29;20057;-79
2022/01/22 18:58:57;;;;;;;12.75;5.40;;;;;;;;;;4857039;29;20045;-78
2022/01/22 19:01:27;;;;;;;11.68;5.70;;;;;;;;;;4857594;29;20109;-78
2022/01/22 19:03:54;;;;;;;15.15;6.85;;;;;;;;;;4867978;29;20053;-78
2022/01/22 19:06:21;;;;;;;16.95;6.07;;;;;;;;;;4859890;29;20040;-78
2022/01/22 19:08:48;;;;;;;15.40;5.93;;;;;;;;;;4860773;29;20045;-78
2022/01/22 19:11:15;;;;;;;19.83;5.88;;;;;;;;;;4861499;29;20041;-78
2022/01/22 19:13:41;;;;;;;14.70;6.40;;;;;;;;;;4862572;29;20073;-78
2022/01/22 19:16:09;;;;;;;11.90;5.50;;;;;;;;;;4845139;29;20073;-78
2022/01/22 19:18:36;;;;;;;11.95;6.07;;;;;;;;;;4854366;29;20064;-78
2022/01/22 19:21:08;;;;;;;12.65;5.63;;;;;;;;;;4866289;29;20106;-79
2022/01/22 19:23:44;;;;;;;14.55;6.32;;;;;;;;;;4856805;29;20056;-77
2022/01/22 19:26:37;;;;;;;15.30;6.72;;;;;;;;;;4857440;29;20049;-79
2022/01/22 19:28:58;;;;;;;18.98;6.47;;;;;;;;;;4857286;29;20052;-78
2022/01/22 19:31:24;;;;;;;17.13;6.95;;;;;;;;;;4859020;29;20078;-79
2022/01/22 19:33:53;;;;;;;13.88;6.72;;;;;;;;;;4847531;29;20055;-78
2022/01/22 19:36:21;;;;;;;18.65;7.90;;;;;;;;;;4865029;29;20136;-79
2022/01/22 19:38:48;;;;;;;19.17;7.45;;;;;;;;;;4853436;29;20053;-79
2022/01/22 19:41:23;;;;;;;19.25;7.60;;;;;;;;;;4838475;29;20102;-79
2022/01/22 19:43:58;;;;;;;15.05;7.18;;;;;;;;;;4855429;29;20077;-78
2022/01/22 19:46:26;;;;;;;17.08;7.30;;;;;;;;;;4855667;29;20490;-78
2022/01/22 19:48:57;;;;;;;16.95;7.13;;;;;;;;;;4855398;29;20057;-79
2022/01/22 19:51:25;;;;;;;15.38;7.20;;;;;;;;;;4855353;29;20061;-78
2022/01/22 19:53:53;;;;;;;22.63;7.15;;;;;;;;;;4855306;29;20110;-79
2022/01/22 19:56:20;;;;;;;14.93;6.50;;;;;;;;;;4855570;29;20109;-78
2022/01/22 19:58:47;;;;;;;14.20;6.53;;;;;;;;;;4855469;29;20057;-78
2022/01/22 20:01:16;;;;;;;15.25;6.78;;;;;;;;;;4855040;29;20045;-79
2022/01/22 20:03:43;;;;;;;15.27;7.25;;;;;;;;;;4855133;29;20057;-79
2022/01/22 20:06:10;;;;;;;22.27;8.35;;;;;;;;;;4854104;29;20542;-78
2022/01/22 20:08:37;;;;;;;22.30;8.20;;;;;;;;;;4855084;29;20109;-79
2022/01/22 20:11:04;;;;;;;18.98;8.20;;;;;;;;;;4854849;29;20049;-80
2022/01/22 20:13:31;;;;;;;20.33;7.18;;;;;;;;;;4856412;29;20503;-78
2022/01/22 20:15:58;;;;;;;14.77;7.32;;;;;;;;;;4854720;29;20050;-79
2022/01/22 20:18:29;;;;;;;18.08;6.97;;;;;;;;;;4854597;29;20077;-79
2022/01/22 20:20:59;;;;;;;20.45;6.57;;;;;;;;;;4855251;29;20411;-79
2022/01/22 20:23:45;;;;;;;16.13;6.70;;;;;;;;;;4854532;29;20201;-79
2022/01/22 20:26:12;;;;;;;15.15;6.43;;;;;;;;;;4854346;29;20120;-79
2022/01/22 20:28:41;;;;;;;20.20;6.85;;;;;;;;;;4856030;29;20125;-79
2022/01/22 20:31:08;;;;;;;;;;;;;;;;;;4854988;29;20053;-79
2022/01/22 20:33:35;;;;;;;13.57;6.55;;;;;;;;;;4854843;29;19935;-78
2022/01/22 20:36:02;;;;;;;17.15;8.07;;;;;;;;;;4854423;29;20408;-78
2022/01/22 20:38:29;;;;;;;11.95;6.28;;;;;;;;;;4854726;29;20554;-79
2022/01/22 20:40:55;;;;;;;19.52;6.53;;;;;;;;;;4855154;29;20079;-79
2022/01/22 20:43:22;;;;;;;17.98;6.75;;;;;;;;;;4854426;29;20084;-79
2022/01/22 20:45:48;;;;;;;23.70;7.53;;;;;;;;;;4858258;29;20582;-77
2022/01/22 20:48:18;;;;;;;17.80;6.35;;;;;;;;;;4858691;29;20053;-79
2022/01/22 20:50:45;;;;;;;13.57;6.28;;;;;;;;;;4855103;29;20050;-78
2022/01/22 20:53:15;;;;;;;15.38;6.90;;;;;;;;;;4859772;29;20049;-78
2022/01/22 20:55:42;;;;;;;15.52;8.93;;;;;;;;;;4854468;29;20525;-77
2022/01/22 20:58:18;;;;;;;14.27;6.43;;;;;;;;;;4853766;29;20045;-79
2022/01/22 21:00:46;;;;;;;15.15;6.22;;;;;;;;;;4853725;29;20598;-78
2022/01/22 21:03:13;;;;;;;17.67;6.97;;;;;;;;;;4854122;29;20110;-78
2022/01/22 21:05:40;;;;;;;13.95;7.38;;;;;;;;;;4854266;29;20129;-78
2022/01/22 21:08:13;;;;;;;19.02;7.60;;;;;;;;;;4854079;29;20093;-78
2022/01/22 21:10:44;;;;;;;16.10;7.28;;;;;;;;;;4855187;29;20057;-78
2022/01/22 21:13:14;;;;;;;18.67;7.22;;;;;;;;;;4834520;29;20621;-78
2022/01/22 21:15:42;;;;;;;18.15;7.72;;;;;;;;;;4853906;29;20401;-79
2022/01/22 21:18:09;;;;;;;17.95;7.72;;;;;;;;;;4853468;29;20042;-79
2022/01/22 21:20:36;;;;;;;18.30;8.32;;;;;;;;;;4853999;29;20081;-79
2022/01/22 21:23:03;;;;;;;17.70;8.48;;;;;;;;;;4854461;29;20053;-79
2022/01/22 21:25:31;;;;;;;23.52;8.15;;;;;;;;;;4854005;29;20129;-79
2022/01/22 21:27:58;;;;;;;22.95;9.30;;;;;;;;;;4853524;29;20086;-78
2022/01/22 21:30:26;;;;;;;21.95;8.40;;;;;;;;;;4853451;29;20053;-79
2022/01/22 21:32:52;;;;;;;19.65;7.93;;;;;;;;;;4854180;29;20105;-79
2022/01/22 21:35:19;;;;;;;24.77;9.20;;;;;;;;;;4853465;29;20058;-78
2022/01/22 21:40:32;;;;;;;20.73;8.63;;;;;;;;;;4854023;29;20128;-79
2022/01/22 21:42:59;;;;;;;14.57;8.45;;;;;;;;;;4853642;29;20089;-78
2022/01/22 21:45:26;;;;;;;23.85;9.00;;;;;;;;;;4853017;29;20058;-78
2022/01/22 21:47:54;;;;;;;15.82;9.85;;;;;;;;;;4852834;29;20056;-78
2022/01/22 21:50:22;;;;;;;22.30;9.35;;;;;;;;;;4852348;29;20075;-78
2022/01/22 21:52:49;;;;;;;15.40;8.30;;;;;;;;;;4853052;29;20089;-78
2022/01/22 21:55:17;;;;;;;17.92;8.43;;;;;;;;;;4853393;29;20054;-79
2022/01/22 21:57:44;;;;;;;18.92;8.25;;;;;;;;;;4853203;29;20137;-78
2022/01/22 22:00:11;;;;;;;21.17;8.90;;;;;;;;;;4852690;29;20519;-78
2022/01/22 22:02:39;;;;;;;14.85;8.20;;;;;;;;;;4852387;29;20159;-78
2022/01/22 22:05:07;;;;;;;21.92;8.50;;;;;;;;;;4852886;29;20076;-78
2022/01/22 22:07:33;;;;;;;22.40;8.68;;;;;;;;;;4853878;29;20049;-79
2022/01/22 22:10:04;;;;;;;24.65;9.98;;;;;;;;;;4853128;29;20054;-79
2022/01/22 22:12:30;;;;;;;18.63;8.98;;;;;;;;;;4853198;29;20049;-78
2022/01/22 22:14:57;;;;;;;17.88;9.15;;;;;;;;;;4853054;29;20045;-79
2022/01/22 22:17:26;;;;;;;26.52;9.57;;;;;;;;;;4834296;29;20084;-79
2022/01/22 22:19:53;;;;;;;23.17;9.57;;;;;;;;;;4853581;29;20053;-78
2022/01/22 22:22:20;;;;;;;22.88;9.93;;;;;;;;;;4852996;29;20057;-79
2022/01/22 22:24:47;;;;;;;32.50;10.68;;;;;;;;;;4853327;29;20164;-79
2022/01/22 22:27:13;;;;;;;20.33;10.63;;;;;;;;;;4853128;29;20102;-79
2022/01/22 22:29:40;;;;;;;23.63;11.10;;;;;;;;;;4853074;29;20099;-78
2022/01/22 22:32:07;;;;;;;26.92;10.50;;;;;;;;;;4852441;29;20053;-78
2022/01/22 22:34:34;;;;;;;22.48;10.05;;;;;;;;;;4853807;29;20065;-79
2022/01/22 22:37:01;;;;;;;22.23;10.07;;;;;;;;;;4852618;29;20538;-79
2022/01/22 22:39:27;;;;;;;25.90;11.65;;;;;;;;;;4850872;29;20053;-77
2022/01/22 22:41:54;;;;;;;21.38;10.48;;;;;;;;;;4845789;29;20146;-78
2022/01/22 22:44:20;;;;;;;18.33;10.30;;;;;;;;;;4853332;29;20069;-78
2022/01/22 22:46:48;;;;;;;27.73;10.63;;;;;;;;;;4860558;29;20152;-78
2022/01/22 22:49:15;;;;;;;21.27;10.63;;;;;;;;;;4858190;29;20131;-77
2022/01/22 22:51:42;;;;;;;19.48;10.20;;;;;;;;;;4859219;29;20045;-78